createdAt,value
2017-08-05T00:00:41.826Z,1007.76
2017-08-05T00:01:54.121Z,1007.8
2017-08-05T00:03:06.455Z,1007.77
2017-08-05T00:04:18.713Z,1007.71
2017-08-05T00:05:31.349Z,1007.68
2017-08-05T00:06:43.605Z,1007.75
2017-08-05T00:07:56.236Z,1007.72
2017-08-05T00:09:08.214Z,1007.74
2017-08-05T00:10:21.056Z,1007.79
2017-08-05T00:11:33.380Z,1007.81
2017-08-05T00:12:46.001Z,1007.86
2017-08-05T00:13:58.280Z,1007.89
2017-08-05T00:15:10.632Z,1007.86
2017-08-05T00:16:22.922Z,1007.9
2017-08-05T00:17:35.490Z,1007.84
2017-08-05T00:18:48.207Z,1007.84
2017-08-05T00:20:00.780Z,1007.83
2017-08-05T00:21:13.068Z,1007.85
2017-08-05T00:22:25.348Z,1007.81
2017-08-05T00:23:37.963Z,1007.83
2017-08-05T00:24:50.529Z,1007.86
2017-08-05T00:26:03.054Z,1007.86
2017-08-05T00:27:15.635Z,1007.84
2017-08-05T00:28:28.201Z,1007.84
2017-08-05T00:29:40.869Z,1007.85
2017-08-05T00:30:53.412Z,1007.81
2017-08-05T00:32:05.708Z,1007.82
2017-08-05T00:33:17.990Z,1007.81
2017-08-05T00:34:30.602Z,1007.82
2017-08-05T00:35:42.857Z,1007.76
2017-08-05T00:36:55.197Z,1007.76
2017-08-05T00:38:07.161Z,1007.74
2017-08-05T00:39:19.745Z,1007.8
2017-08-05T00:40:32.368Z,1007.78
2017-08-05T00:41:44.663Z,1007.78
2017-08-05T00:42:57.471Z,1007.73
2017-08-05T00:44:09.424Z,1007.72
2017-08-05T00:45:22.006Z,1007.7
2017-08-05T00:46:34.559Z,1007.72
2017-08-05T00:47:47.168Z,1007.73
2017-08-05T00:48:59.733Z,1007.72
2017-08-05T00:50:12.047Z,1007.75
2017-08-05T00:51:24.295Z,1007.71
2017-08-05T00:52:36.919Z,1007.72
2017-08-05T00:53:49.499Z,1007.7
2017-08-05T00:55:02.162Z,1007.75
2017-08-05T00:56:14.737Z,1007.77
2017-08-05T00:57:26.978Z,1007.77
2017-08-05T00:58:39.595Z,1007.76
2017-08-05T00:59:51.918Z,1007.79
2017-08-05T01:01:04.515Z,1007.75
2017-08-05T01:02:17.122Z,1007.76
2017-08-05T01:03:29.776Z,1007.71
2017-08-05T01:04:42.404Z,1007.7
2017-08-05T01:05:54.955Z,1007.69
2017-08-05T01:07:07.215Z,1007.68
2017-08-05T01:08:19.821Z,1007.67
2017-08-05T01:09:32.157Z,1007.72
2017-08-05T01:10:44.504Z,1007.73
2017-08-05T01:11:57.099Z,1007.73
2017-08-05T01:13:09.675Z,1007.74
2017-08-05T01:14:21.981Z,1007.78
2017-08-05T01:15:34.254Z,1007.83
2017-08-05T01:16:46.899Z,1007.85
2017-08-05T01:17:59.520Z,1007.88
2017-08-05T01:19:11.824Z,1007.86
2017-08-05T01:20:24.372Z,1007.88
2017-08-05T01:21:36.922Z,1007.91
2017-08-05T01:22:49.503Z,1007.93
2017-08-05T01:24:02.132Z,1007.94
2017-08-05T01:25:14.678Z,1007.91
2017-08-05T01:26:26.991Z,1007.97
2017-08-05T01:27:39.596Z,1007.97
2017-08-05T01:28:52.146Z,1008.01
2017-08-05T01:30:04.430Z,1008.05
2017-08-05T01:31:17.033Z,1008.06
2017-08-05T01:32:29.614Z,1008.12
2017-08-05T01:33:41.907Z,1008.11
2017-08-05T01:34:54.506Z,1008.1
2017-08-05T01:36:07.123Z,1008.1
2017-08-05T01:37:19.738Z,1008.12
2017-08-05T01:38:32.019Z,1008.15
2017-08-05T01:39:44.640Z,1008.16
2017-08-05T01:40:57.261Z,1008.11
2017-08-05T01:42:09.550Z,1008.11
2017-08-05T01:43:22.141Z,1008.1
2017-08-05T01:44:34.105Z,1008.09
2017-08-05T01:45:46.338Z,1008.05
2017-08-05T01:46:58.617Z,1008.09
2017-08-05T01:48:11.478Z,1008.06
2017-08-05T01:49:24.037Z,1008.07
2017-08-05T01:50:36.678Z,1008.07
2017-08-05T01:51:48.638Z,1008.06
2017-08-05T01:53:00.940Z,1008.1
2017-08-05T01:54:13.537Z,1008.04
2017-08-05T01:55:26.127Z,1008.04
2017-08-05T01:56:38.372Z,1008.06
2017-08-05T01:57:50.707Z,1008.07
2017-08-05T01:59:03.326Z,1008.05
2017-08-05T02:00:15.601Z,1008.05
2017-08-05T02:01:27.904Z,1008.09
2017-08-05T02:02:40.519Z,1008.09
2017-08-05T02:03:53.131Z,1008.12
2017-08-05T02:05:05.429Z,1008.12
2017-08-05T02:06:17.430Z,1008.2
2017-08-05T02:07:29.760Z,1008.21
2017-08-05T02:08:42.281Z,1008.23
2017-08-05T02:09:54.876Z,1008.26
2017-08-05T02:11:07.159Z,1008.25
2017-08-05T02:12:19.826Z,1008.3
2017-08-05T02:13:32.469Z,1008.26
2017-08-05T02:14:45.066Z,1008.26
2017-08-05T02:15:57.695Z,1008.29
2017-08-05T02:17:10.278Z,1008.31
2017-08-05T02:18:22.822Z,1008.3
2017-08-05T02:19:35.021Z,1008.31
2017-08-05T02:20:47.890Z,1008.33
2017-08-05T02:22:00.486Z,1008.34
2017-08-05T02:23:12.435Z,1008.31
2017-08-05T02:24:24.709Z,1008.33
2017-08-05T02:25:37.311Z,1008.36
2017-08-05T02:26:49.581Z,1008.38
2017-08-05T02:28:02.168Z,1008.35
2017-08-05T02:29:14.748Z,1008.37
2017-08-05T02:30:27.338Z,1008.33
2017-08-05T02:31:39.629Z,1008.3
2017-08-05T02:32:52.247Z,1008.33
2017-08-05T02:34:04.821Z,1008.31
2017-08-05T02:35:17.071Z,1008.33
2017-08-05T02:36:29.654Z,1008.37
2017-08-05T02:37:42.199Z,1008.34
2017-08-05T02:38:54.797Z,1008.34
2017-08-05T02:40:07.377Z,1008.29
2017-08-05T02:41:19.738Z,1008.29
2017-08-05T02:42:32.358Z,1008.29
2017-08-05T02:43:44.913Z,1008.29
2017-08-05T02:44:57.459Z,1008.27
2017-08-05T02:46:09.983Z,1008.32
2017-08-05T02:47:22.593Z,1008.29
2017-08-05T02:48:35.204Z,1008.34
2017-08-05T02:49:47.808Z,1008.32
2017-08-05T02:51:00.039Z,1008.33
2017-08-05T02:52:12.619Z,1008.36
2017-08-05T02:53:25.160Z,1008.35
2017-08-05T02:54:37.761Z,1008.38
2017-08-05T02:55:50.372Z,1008.38
2017-08-05T02:57:02.919Z,1008.37
2017-08-05T02:58:15.413Z,1008.36
2017-08-05T02:59:27.986Z,1008.39
2017-08-05T03:00:40.529Z,1008.38
2017-08-05T03:01:52.776Z,1008.4
2017-08-05T03:03:05.348Z,1008.41
2017-08-05T03:04:17.924Z,1008.37
2017-08-05T03:05:30.549Z,1008.29
2017-08-05T03:06:43.132Z,1008.32
2017-08-05T03:07:55.186Z,1008.29
2017-08-05T03:09:07.516Z,1008.29
2017-08-05T03:10:20.190Z,1008.36
2017-08-05T03:11:32.779Z,1008.35
2017-08-05T03:12:45.403Z,1008.36
2017-08-05T03:13:58.011Z,1008.38
2017-08-05T03:15:09.723Z,1008.4
2017-08-05T03:16:21.988Z,1008.4
2017-08-05T03:17:34.522Z,1008.35
2017-08-05T03:18:46.811Z,1008.39
2017-08-05T03:19:59.420Z,1008.39
2017-08-05T03:21:11.987Z,1008.4
2017-08-05T03:22:24.548Z,1008.38
2017-08-05T03:23:37.101Z,1008.44
2017-08-05T03:24:49.436Z,1008.47
2017-08-05T03:26:02.326Z,1008.48
2017-08-05T03:27:14.864Z,1008.46
2017-08-05T03:28:27.478Z,1008.51
2017-08-05T03:29:40.014Z,1008.54
2017-08-05T03:30:52.640Z,1008.53
2017-08-05T03:32:05.176Z,1008.6
2017-08-05T03:33:17.680Z,1008.59
2017-08-05T03:34:30.251Z,1008.49
2017-08-05T03:35:42.512Z,1008.51
2017-08-05T03:36:55.118Z,1008.5
2017-08-05T03:38:07.702Z,1008.45
2017-08-05T03:39:20.249Z,1008.5
2017-08-05T03:40:32.881Z,1008.48
2017-08-05T03:41:45.198Z,1008.5
2017-08-05T03:42:57.872Z,1008.5
2017-08-05T03:44:10.143Z,1008.55
2017-08-05T03:45:22.714Z,1008.57
2017-08-05T03:46:35.336Z,1008.62
2017-08-05T03:47:48.170Z,1008.66
2017-08-05T03:49:00.458Z,1008.64
2017-08-05T03:50:12.754Z,1008.64
2017-08-05T03:51:25.334Z,1008.62
2017-08-05T03:52:37.663Z,1008.61
2017-08-05T03:53:50.253Z,1008.64
2017-08-05T03:55:02.519Z,1008.63
2017-08-05T03:56:14.560Z,1008.59
2017-08-05T03:57:27.156Z,1008.62
2017-08-05T03:58:39.707Z,1008.57
2017-08-05T03:59:52.290Z,1008.58
2017-08-05T04:01:04.926Z,1008.59
2017-08-05T04:02:17.574Z,1008.61
2017-08-05T04:03:30.178Z,1008.6
2017-08-05T04:04:42.842Z,1008.61
2017-08-05T04:05:55.466Z,1008.64
2017-08-05T04:07:08.072Z,1008.63
2017-08-05T04:08:20.628Z,1008.6
2017-08-05T04:09:33.250Z,1008.67
2017-08-05T04:10:45.849Z,1008.67
2017-08-05T04:11:58.480Z,1008.67
2017-08-05T04:13:11.062Z,1008.63
2017-08-05T04:14:23.648Z,1008.66
2017-08-05T04:15:36.156Z,1008.68
2017-08-05T04:16:48.748Z,1008.62
2017-08-05T04:18:01.356Z,1008.58
2017-08-05T04:19:13.623Z,1008.57
2017-08-05T04:20:26.264Z,1008.57
2017-08-05T04:21:38.812Z,1008.57
2017-08-05T04:22:51.129Z,1008.53
2017-08-05T04:24:03.704Z,1008.49
2017-08-05T04:25:16.317Z,1008.45
2017-08-05T04:26:28.914Z,1008.43
2017-08-05T04:27:41.494Z,1008.42
2017-08-05T04:28:54.085Z,1008.42
2017-08-05T04:30:06.078Z,1008.37
2017-08-05T04:31:18.696Z,1008.39
2017-08-05T04:32:30.961Z,1008.33
2017-08-05T04:33:43.546Z,1008.34
2017-08-05T04:34:56.191Z,1008.43
2017-08-05T04:36:08.459Z,1008.43
2017-08-05T04:37:20.427Z,1008.45
2017-08-05T04:38:32.731Z,1008.5
2017-08-05T04:39:44.976Z,1008.51
2017-08-05T04:40:57.266Z,1008.63
2017-08-05T04:42:09.823Z,1008.67
2017-08-05T04:43:22.462Z,1008.68
2017-08-05T04:44:35.030Z,1008.67
2017-08-05T04:45:47.305Z,1008.7
2017-08-05T04:46:59.880Z,1008.72
2017-08-05T04:48:12.465Z,1008.76
2017-08-05T04:49:25.062Z,1008.78
2017-08-05T04:50:37.064Z,1008.76
2017-08-05T04:51:49.678Z,1008.77
2017-08-05T04:53:02.250Z,1008.8
2017-08-05T04:54:14.182Z,1008.72
2017-08-05T04:55:26.821Z,1008.71
2017-08-05T04:56:39.362Z,1008.73
2017-08-05T04:57:51.876Z,1008.68
2017-08-05T04:59:04.507Z,1008.62
2017-08-05T05:00:17.150Z,1008.61
2017-08-05T05:01:29.719Z,1008.61
2017-08-05T05:02:41.942Z,1008.65
2017-08-05T05:03:54.555Z,1008.69
2017-08-05T05:05:07.137Z,1008.71
2017-08-05T05:06:19.755Z,1008.73
2017-08-05T05:07:32.293Z,1008.73
2017-08-05T05:08:44.902Z,1008.63
2017-08-05T05:09:57.168Z,1008.69
2017-08-05T05:11:09.438Z,1008.68
2017-08-05T05:12:22.099Z,1008.74
2017-08-05T05:13:34.696Z,1008.74
2017-08-05T05:14:47.318Z,1008.68
2017-08-05T05:15:59.889Z,1008.64
2017-08-05T05:17:12.149Z,1008.68
2017-08-05T05:18:24.767Z,1008.68
2017-08-05T05:19:37.010Z,1008.65
2017-08-05T05:20:49.612Z,1008.67
2017-08-05T05:22:02.201Z,1008.69
2017-08-05T05:23:14.440Z,1008.7
2017-08-05T05:24:27.043Z,1008.72
2017-08-05T05:25:39.631Z,1008.65
2017-08-05T05:26:51.683Z,1008.65
2017-08-05T05:28:03.992Z,1008.69
2017-08-05T05:29:16.273Z,1008.7
2017-08-05T05:30:28.571Z,1008.7
2017-08-05T05:31:40.793Z,1008.7
2017-08-05T05:32:53.091Z,1008.71
2017-08-05T05:34:05.677Z,1008.72
2017-08-05T05:35:18.055Z,1008.74
2017-08-05T05:36:30.713Z,1008.76
2017-08-05T05:37:43.253Z,1008.76
2017-08-05T05:38:55.862Z,1008.78
2017-08-05T05:40:08.450Z,1008.77
2017-08-05T05:41:20.761Z,1008.77
2017-08-05T05:42:33.323Z,1008.82
2017-08-05T05:43:45.875Z,1008.88
2017-08-05T05:44:58.502Z,1008.9
2017-08-05T05:46:11.150Z,1008.92
2017-08-05T05:47:23.737Z,1008.89
2017-08-05T05:48:35.973Z,1008.83
2017-08-05T05:49:48.586Z,1008.81
2017-08-05T05:51:00.889Z,1008.77
2017-08-05T05:52:13.463Z,1008.79
2017-08-05T05:53:26.350Z,1008.69
2017-08-05T05:54:38.918Z,1008.73
2017-08-05T05:55:51.512Z,1008.8
2017-08-05T05:57:03.532Z,1008.83
2017-08-05T05:58:16.129Z,1008.84
2017-08-05T05:59:28.424Z,1008.78
2017-08-05T06:00:40.725Z,1008.78
2017-08-05T06:01:53.064Z,1008.85
2017-08-05T06:03:05.379Z,1008.91
2017-08-05T06:04:17.632Z,1008.87
2017-08-05T06:05:30.296Z,1009.01
2017-08-05T06:06:42.528Z,1009.1
2017-08-05T06:07:55.141Z,1009.16
2017-08-05T06:09:07.130Z,1009.02
2017-08-05T06:10:19.773Z,1008.91
2017-08-05T06:11:32.362Z,1008.87
2017-08-05T06:12:45.036Z,1008.86
2017-08-05T06:13:57.675Z,1008.88
2017-08-05T06:15:09.982Z,1008.86
2017-08-05T06:16:22.292Z,1008.87
2017-08-05T06:17:34.867Z,1008.91
2017-08-05T06:18:47.446Z,1008.9
2017-08-05T06:19:59.825Z,1008.92
2017-08-05T06:21:12.080Z,1008.9
2017-08-05T06:22:24.351Z,1008.9
2017-08-05T06:23:36.918Z,1008.94
2017-08-05T06:24:49.520Z,1008.92
2017-08-05T06:26:01.801Z,1008.93
2017-08-05T06:27:13.794Z,1008.89
2017-08-05T06:28:26.402Z,1008.81
2017-08-05T06:29:38.670Z,1008.8
2017-08-05T06:30:51.268Z,1008.89
2017-08-05T06:32:03.831Z,1008.82
2017-08-05T06:33:16.412Z,1008.88
2017-08-05T06:34:28.717Z,1008.85
2017-08-05T06:35:41.326Z,1008.82
2017-08-05T06:36:53.907Z,1008.84
2017-08-05T06:38:06.172Z,1008.83
2017-08-05T06:39:18.464Z,1008.77
2017-08-05T06:40:31.061Z,1008.83
2017-08-05T06:41:43.907Z,1008.83
2017-08-05T06:42:55.827Z,1008.84
2017-08-05T06:44:08.109Z,1008.81
2017-08-05T06:45:20.750Z,1008.85
2017-08-05T06:46:33.087Z,1008.87
2017-08-05T06:47:45.687Z,1008.87
2017-08-05T06:48:58.371Z,1008.89
2017-08-05T06:50:10.969Z,1008.88
2017-08-05T06:51:23.255Z,1008.87
2017-08-05T06:52:35.900Z,1008.86
2017-08-05T06:53:48.454Z,1008.85
2017-08-05T06:55:00.724Z,1008.86
2017-08-05T06:56:13.337Z,1008.93
2017-08-05T06:57:25.908Z,1008.95
2017-08-05T06:58:38.466Z,1008.97
2017-08-05T06:59:51.001Z,1008.95
2017-08-05T07:01:03.565Z,1008.91
2017-08-05T07:02:16.189Z,1008.86
2017-08-05T07:03:28.508Z,1008.89
2017-08-05T07:04:41.072Z,1008.91
2017-08-05T07:05:53.678Z,1008.82
2017-08-05T07:07:05.981Z,1008.68
2017-08-05T07:08:18.294Z,1008.52
2017-08-05T07:09:30.623Z,1008.46
2017-08-05T07:10:43.209Z,1008.51
2017-08-05T07:11:55.831Z,1008.58
2017-08-05T07:13:08.123Z,1008.61
2017-08-05T07:14:20.762Z,1008.57
2017-08-05T07:15:33.409Z,1008.56
2017-08-05T07:16:45.660Z,1008.6
2017-08-05T07:17:58.264Z,1008.62
2017-08-05T07:19:10.311Z,1008.58
2017-08-05T07:20:23.011Z,1008.57
2017-08-05T07:21:35.072Z,1008.58
2017-08-05T07:22:47.080Z,1008.64
2017-08-05T07:23:59.666Z,1008.7
2017-08-05T07:25:12.473Z,1008.64
2017-08-05T07:26:25.048Z,1008.6
2017-08-05T07:27:37.662Z,1008.58
2017-08-05T07:28:50.272Z,1008.68
2017-08-05T07:30:02.874Z,1008.73
2017-08-05T07:31:15.537Z,1008.76
2017-08-05T07:32:28.110Z,1008.76
2017-08-05T07:33:40.680Z,1008.72
2017-08-05T07:34:53.280Z,1008.72
2017-08-05T07:36:05.589Z,1008.75
2017-08-05T07:37:18.196Z,1008.74
2017-08-05T07:38:30.768Z,1008.75
2017-08-05T07:39:43.033Z,1008.68
2017-08-05T07:40:55.709Z,1008.62
2017-08-05T07:42:08.376Z,1008.67
2017-08-05T07:43:20.962Z,1008.6
2017-08-05T07:44:33.249Z,1008.65
2017-08-05T07:45:45.595Z,1008.64
2017-08-05T07:46:58.403Z,1008.56
2017-08-05T07:48:10.663Z,1008.56
2017-08-05T07:49:23.227Z,1008.53
2017-08-05T07:50:35.816Z,1008.45
2017-08-05T07:51:48.446Z,1008.37
2017-08-05T07:53:01.082Z,1008.25
2017-08-05T07:54:13.422Z,1008.16
2017-08-05T07:55:25.756Z,1008.19
2017-08-05T07:56:38.382Z,1008.25
2017-08-05T07:57:50.689Z,1008.27
2017-08-05T07:59:02.946Z,1008.35
2017-08-05T08:00:15.588Z,1008.38
2017-08-05T08:01:27.916Z,1008.42
2017-08-05T08:02:40.530Z,1008.5
2017-08-05T08:03:52.878Z,1008.45
2017-08-05T08:05:05.455Z,1008.46
2017-08-05T08:06:17.812Z,1008.44
2017-08-05T08:07:30.415Z,1008.47
2017-08-05T08:08:43.011Z,1008.46
2017-08-05T08:09:55.650Z,1008.46
2017-08-05T08:11:07.310Z,1008.46
2017-08-05T08:12:19.975Z,1008.46
2017-08-05T08:13:32.607Z,1008.42
2017-08-05T08:14:44.966Z,1008.49
2017-08-05T08:15:57.519Z,1008.48
2017-08-05T08:17:09.883Z,1008.5
2017-08-05T08:18:22.490Z,1008.46
2017-08-05T08:19:35.424Z,1008.39
2017-08-05T08:20:48.012Z,1008.4
2017-08-05T08:22:00.309Z,1008.31
2017-08-05T08:23:12.562Z,1008.28
2017-08-05T08:24:24.870Z,1008.34
2017-08-05T08:25:37.498Z,1008.47
2017-08-05T08:26:50.129Z,1008.62
2017-08-05T08:28:02.402Z,1008.67
2017-08-05T08:29:15.048Z,1008.7
2017-08-05T08:30:27.312Z,1008.74
2017-08-05T08:31:39.290Z,1008.76
2017-08-05T08:32:51.922Z,1008.77
2017-08-05T08:34:03.949Z,1008.77
2017-08-05T08:35:16.275Z,1008.75
2017-08-05T08:36:28.877Z,1008.74
2017-08-05T08:37:40.900Z,1008.71
2017-08-05T08:38:53.526Z,1008.64
2017-08-05T08:40:05.862Z,1008.63
2017-08-05T08:41:18.434Z,1008.83
2017-08-05T08:42:31.062Z,1008.81
2017-08-05T08:43:43.405Z,1008.89
2017-08-05T08:44:56.039Z,1008.91
2017-08-05T08:46:08.320Z,1009.02
2017-08-05T08:47:20.605Z,1009
2017-08-05T08:48:32.933Z,1009
2017-08-05T08:49:45.523Z,1009.03
2017-08-05T08:50:57.820Z,1009.03
2017-08-05T08:52:10.407Z,1008.99
2017-08-05T08:53:22.385Z,1008.92
2017-08-05T08:54:34.981Z,1009.02
2017-08-05T08:55:47.546Z,1009.02
2017-08-05T08:56:59.805Z,1009.05
2017-08-05T08:58:12.370Z,1009.01
2017-08-05T08:59:24.966Z,1008.99
2017-08-05T09:00:37.589Z,1008.85
2017-08-05T09:01:50.232Z,1008.72
2017-08-05T09:03:02.521Z,1008.74
2017-08-05T09:04:14.748Z,1008.89
2017-08-05T09:05:27.421Z,1008.89
2017-08-05T09:06:39.670Z,1008.89
2017-08-05T09:07:52.312Z,1008.8
2017-08-05T09:09:04.924Z,1008.73
2017-08-05T09:10:17.502Z,1008.65
2017-08-05T09:11:30.142Z,1008.61
2017-08-05T09:12:42.807Z,1008.63
2017-08-05T09:13:55.390Z,1008.68
2017-08-05T09:15:07.995Z,1008.58
2017-08-05T09:16:20.011Z,1008.48
2017-08-05T09:17:32.407Z,1008.43
2017-08-05T09:18:44.456Z,1008.32
2017-08-05T09:19:57.014Z,1008.34
2017-08-05T09:21:09.370Z,1008.37
2017-08-05T09:22:21.904Z,1008.41
2017-08-05T09:23:33.937Z,1008.63
2017-08-05T09:24:46.585Z,1008.71
2017-08-05T09:25:59.207Z,1008.76
2017-08-05T09:27:11.789Z,1008.85
2017-08-05T09:28:24.366Z,1008.81
2017-08-05T09:29:36.691Z,1008.8
2017-08-05T09:30:49.351Z,1008.76
2017-08-05T09:32:01.989Z,1008.74
2017-08-05T09:33:14.543Z,1008.73
2017-08-05T09:34:27.130Z,1008.73
2017-08-05T09:35:39.424Z,1008.79
2017-08-05T09:36:52.040Z,1008.76
2017-08-05T09:38:04.375Z,1008.77
2017-08-05T09:39:16.986Z,1008.67
2017-08-05T09:40:29.301Z,1008.7
2017-08-05T09:41:41.633Z,1008.57
2017-08-05T09:42:54.192Z,1008.49
2017-08-05T09:44:06.822Z,1008.38
2017-08-05T09:45:19.447Z,1008.3
2017-08-05T09:46:32.031Z,1008.27
2017-08-05T09:47:43.680Z,1008.3
2017-08-05T09:48:55.979Z,1008.24
2017-08-05T09:50:08.586Z,1008.36
2017-08-05T09:51:20.867Z,1008.52
2017-08-05T09:52:33.203Z,1008.63
2017-08-05T09:53:45.751Z,1008.51
2017-08-05T09:54:58.308Z,1008.4
2017-08-05T09:56:10.276Z,1008.39
2017-08-05T09:57:22.612Z,1008.37
2017-08-05T09:58:35.244Z,1008.49
2017-08-05T09:59:47.860Z,1008.59
2017-08-05T10:01:00.482Z,1008.68
2017-08-05T10:02:13.020Z,1008.73
2017-08-05T10:03:25.666Z,1008.78
2017-08-05T10:04:37.947Z,1008.81
2017-08-05T10:05:50.533Z,1008.68
2017-08-05T10:07:03.079Z,1008.63
2017-08-05T10:08:15.382Z,1008.69
2017-08-05T10:09:27.970Z,1008.71
2017-08-05T10:10:40.610Z,1008.71
2017-08-05T10:11:53.219Z,1008.7
2017-08-05T10:13:05.824Z,1008.68
2017-08-05T10:14:18.523Z,1008.72
2017-08-05T10:15:31.241Z,1008.62
2017-08-05T10:16:43.882Z,1008.6
2017-08-05T10:17:56.467Z,1008.48
2017-08-05T10:19:08.427Z,1008.46
2017-08-05T10:20:21.064Z,1008.44
2017-08-05T10:21:33.368Z,1008.5
2017-08-05T10:22:45.731Z,1008.55
2017-08-05T10:23:58.030Z,1008.53
2017-08-05T10:25:10.598Z,1008.51
2017-08-05T10:26:22.911Z,1008.49
2017-08-05T10:27:35.551Z,1008.49
2017-08-05T10:28:48.212Z,1008.44
2017-08-05T10:29:59.909Z,1008.43
2017-08-05T10:31:11.904Z,1008.35
2017-08-05T10:32:24.513Z,1008.32
2017-08-05T10:33:36.899Z,1008.33
2017-08-05T10:34:49.523Z,1008.39
2017-08-05T10:36:01.565Z,1008.5
2017-08-05T10:37:14.141Z,1008.52
2017-08-05T10:38:26.780Z,1008.46
2017-08-05T10:39:39.332Z,1008.4
2017-08-05T10:40:51.951Z,1008.42
2017-08-05T10:42:04.216Z,1008.47
2017-08-05T10:43:16.532Z,1008.47
2017-08-05T10:44:29.088Z,1008.49
2017-08-05T10:45:41.678Z,1008.53
2017-08-05T10:46:54.295Z,1008.61
2017-08-05T10:48:06.226Z,1008.6
2017-08-05T10:49:18.843Z,1008.56
2017-08-05T10:50:31.146Z,1008.6
2017-08-05T10:51:43.716Z,1008.69
2017-08-05T10:52:56.368Z,1008.66
2017-08-05T10:54:08.708Z,1008.7
2017-08-05T10:55:21.038Z,1008.7
2017-08-05T10:56:33.672Z,1008.7
2017-08-05T10:57:46.272Z,1008.77
2017-08-05T10:58:58.261Z,1008.79
2017-08-05T11:00:10.238Z,1008.78
2017-08-05T11:01:22.584Z,1008.7
2017-08-05T11:02:35.226Z,1008.66
2017-08-05T11:03:47.820Z,1008.76
2017-08-05T11:05:00.152Z,1008.84
2017-08-05T11:06:12.421Z,1008.77
2017-08-05T11:07:25.060Z,1008.71
2017-08-05T11:08:37.052Z,1008.65
2017-08-05T11:09:49.645Z,1008.68
2017-08-05T11:11:01.952Z,1008.73
2017-08-05T11:12:14.532Z,1008.74
2017-08-05T11:13:26.840Z,1008.83
2017-08-05T11:14:38.859Z,1008.86
2017-08-05T11:15:51.480Z,1008.85
2017-08-05T11:17:03.806Z,1008.83
2017-08-05T11:18:16.420Z,1008.88
2017-08-05T11:19:28.723Z,1008.78
2017-08-05T11:20:41.280Z,1008.73
2017-08-05T11:21:53.884Z,1008.75
2017-08-05T11:23:05.832Z,1008.78
2017-08-05T11:24:18.405Z,1008.84
2017-08-05T11:25:30.649Z,1008.86
2017-08-05T11:26:43.024Z,1008.87
2017-08-05T11:27:55.588Z,1008.85
2017-08-05T11:29:07.807Z,1008.82
2017-08-05T11:30:19.523Z,1008.76
2017-08-05T11:31:32.037Z,1008.68
2017-08-05T11:32:44.602Z,1008.63
2017-08-05T11:33:57.199Z,1008.52
2017-08-05T11:35:09.456Z,1008.56
2017-08-05T11:36:21.751Z,1008.57
2017-08-05T11:37:33.706Z,1008.66
2017-08-05T11:38:46.337Z,1008.73
2017-08-05T11:39:58.622Z,1008.66
2017-08-05T11:41:11.269Z,1008.59
2017-08-05T11:42:23.831Z,1008.65
2017-08-05T11:43:36.427Z,1008.63
2017-08-05T11:44:48.730Z,1008.65
2017-08-05T11:46:01.034Z,1008.63
2017-08-05T11:47:13.728Z,1008.61
2017-08-05T11:48:25.992Z,1008.56
2017-08-05T11:49:38.565Z,1008.6
2017-08-05T11:50:51.116Z,1008.58
2017-08-05T11:52:03.710Z,1008.55
2017-08-05T11:53:16.031Z,1008.58
2017-08-05T11:54:28.636Z,1008.63
2017-08-05T11:55:40.926Z,1008.59
2017-08-05T11:56:53.540Z,1008.62
2017-08-05T11:58:05.484Z,1008.63
2017-08-05T11:59:17.788Z,1008.69
2017-08-05T12:00:30.078Z,1008.63
2017-08-05T12:01:42.679Z,1008.6
2017-08-05T12:02:55.244Z,1008.55
2017-08-05T12:04:07.816Z,1008.58
2017-08-05T12:05:19.461Z,1008.6
2017-08-05T12:06:32.068Z,1008.64
2017-08-05T12:07:44.695Z,1008.72
2017-08-05T12:08:57.277Z,1008.67
2017-08-05T12:10:09.506Z,1008.67
2017-08-05T12:11:22.144Z,1008.64
2017-08-05T12:12:34.462Z,1008.63
2017-08-05T12:13:47.114Z,1008.6
2017-08-05T12:14:59.759Z,1008.59
2017-08-05T12:16:12.103Z,1008.59
2017-08-05T12:17:24.711Z,1008.64
2017-08-05T12:18:37.009Z,1008.64
2017-08-05T12:19:49.311Z,1008.57
2017-08-05T12:21:01.862Z,1008.51
2017-08-05T12:22:14.436Z,1008.52
2017-08-05T12:23:27.052Z,1008.44
2017-08-05T12:24:39.323Z,1008.37
2017-08-05T12:25:51.291Z,1008.39
2017-08-05T12:27:03.887Z,1008.4
2017-08-05T12:28:16.461Z,1008.42
2017-08-05T12:29:29.019Z,1008.42
2017-08-05T12:30:41.676Z,1008.47
2017-08-05T12:31:54.288Z,1008.54
2017-08-05T12:33:06.241Z,1008.56
2017-08-05T12:34:18.574Z,1008.41
2017-08-05T12:35:31.445Z,1008.49
2017-08-05T12:36:43.823Z,1008.52
2017-08-05T12:37:56.375Z,1008.51
2017-08-05T12:39:08.671Z,1008.47
2017-08-05T12:40:21.268Z,1008.39
2017-08-05T12:41:33.838Z,1008.45
2017-08-05T12:42:46.409Z,1008.37
2017-08-05T12:43:58.995Z,1008.33
2017-08-05T12:45:11.258Z,1008.34
2017-08-05T12:46:23.589Z,1008.31
2017-08-05T12:47:36.165Z,1008.28
2017-08-05T12:48:48.762Z,1008.26
2017-08-05T12:50:01.364Z,1008.22
2017-08-05T12:51:13.659Z,1008.19
2017-08-05T12:52:25.914Z,1008.25
2017-08-05T12:53:38.550Z,1008.31
2017-08-05T12:54:51.161Z,1008.31
2017-08-05T12:56:03.688Z,1008.3
2017-08-05T12:57:16.335Z,1008.44
2017-08-05T12:58:29.009Z,1008.52
2017-08-05T12:59:41.626Z,1008.48
2017-08-05T13:00:53.662Z,1008.28
2017-08-05T13:02:06.277Z,1008.15
2017-08-05T13:03:18.568Z,1008.09
2017-08-05T13:04:30.848Z,1008.14
2017-08-05T13:05:43.109Z,1008.17
2017-08-05T13:06:55.362Z,1008.14
2017-08-05T13:08:07.687Z,1008.2
2017-08-05T13:09:19.978Z,1008.09
2017-08-05T13:10:32.583Z,1008.04
2017-08-05T13:11:44.865Z,1008.1
2017-08-05T13:12:57.457Z,1008.2
2017-08-05T13:14:09.405Z,1008.12
2017-08-05T13:15:21.450Z,1008.17
2017-08-05T13:16:34.056Z,1008.11
2017-08-05T13:17:46.672Z,1007.97
2017-08-05T13:18:59.265Z,1008
2017-08-05T13:20:11.908Z,1008.06
2017-08-05T13:21:24.167Z,1008.1
2017-08-05T13:22:36.524Z,1008.01
2017-08-05T13:23:49.144Z,1007.92
2017-08-05T13:25:01.373Z,1007.93
2017-08-05T13:26:13.918Z,1007.9
2017-08-05T13:27:26.157Z,1007.9
2017-08-05T13:28:38.780Z,1007.93
2017-08-05T13:29:51.349Z,1008.09
2017-08-05T13:31:03.582Z,1007.99
2017-08-05T13:32:16.201Z,1008.05
2017-08-05T13:33:28.838Z,1007.98
2017-08-05T13:34:41.426Z,1007.9
2017-08-05T13:35:53.935Z,1007.85
2017-08-05T13:37:06.225Z,1007.93
2017-08-05T13:38:18.579Z,1007.89
2017-08-05T13:39:31.177Z,1007.87
2017-08-05T13:40:43.469Z,1007.89
2017-08-05T13:41:56.065Z,1007.88
2017-08-05T13:43:08.709Z,1007.9
2017-08-05T13:44:21.282Z,1007.96
2017-08-05T13:45:33.571Z,1007.89
2017-08-05T13:46:46.180Z,1007.93
2017-08-05T13:47:58.763Z,1007.87
2017-08-05T13:49:10.421Z,1007.87
2017-08-05T13:50:22.723Z,1007.96
2017-08-05T13:51:35.301Z,1007.97
2017-08-05T13:52:47.548Z,1007.99
2017-08-05T13:53:59.844Z,1008.04
2017-08-05T13:55:12.132Z,1008.05
2017-08-05T13:56:24.359Z,1008.11
2017-08-05T13:57:36.674Z,1008.13
2017-08-05T13:58:49.256Z,1008.16
2017-08-05T14:00:01.830Z,1007.99
2017-08-05T14:01:14.160Z,1007.92
2017-08-05T14:02:26.482Z,1007.81
2017-08-05T14:03:38.778Z,1007.81
2017-08-05T14:04:51.373Z,1007.84
2017-08-05T14:06:03.956Z,1007.85
2017-08-05T14:07:16.252Z,1007.77
2017-08-05T14:08:28.876Z,1007.66
2017-08-05T14:09:41.478Z,1007.56
2017-08-05T14:10:54.110Z,1007.57
2017-08-05T14:12:06.699Z,1007.56
2017-08-05T14:13:19.232Z,1007.55
2017-08-05T14:14:31.541Z,1007.57
2017-08-05T14:15:43.772Z,1007.56
2017-08-05T14:16:56.357Z,1007.56
2017-08-05T14:18:08.639Z,1007.57
2017-08-05T14:19:21.234Z,1007.51
2017-08-05T14:20:33.204Z,1007.47
2017-08-05T14:21:45.785Z,1007.45
2017-08-05T14:22:58.423Z,1007.49
2017-08-05T14:24:10.716Z,1007.5
2017-08-05T14:25:23.330Z,1007.49
2017-08-05T14:26:35.614Z,1007.58
2017-08-05T14:27:48.190Z,1007.63
2017-08-05T14:29:00.805Z,1007.72
2017-08-05T14:30:13.425Z,1007.83
2017-08-05T14:31:25.787Z,1007.96
2017-08-05T14:32:38.373Z,1008.1
2017-08-05T14:33:50.944Z,1008.12
2017-08-05T14:35:03.284Z,1008.15
2017-08-05T14:36:15.592Z,1008.06
2017-08-05T14:37:27.902Z,1007.92
2017-08-05T14:38:40.497Z,1007.75
2017-08-05T14:39:53.087Z,1007.71